KPIH/PIH METAR and TAF weather

Enter ICAO airport designator
Station Type Date Time Source
KPIH METAR 2020/11/28 19:53 UTC NOAA

KPIH 281953Z 03008KT 10SM FEW020 01/M06 A3033 RMK AO2 SLP305 T00061061 $


Station Type Date Time Source
KPIH Decoded METAR 2020/11/28 19:53 UTC NOAA

POCATELLO REGIONAL AIRPORT, ID, United States (KPIH) 42-55N 112-36W 1359M
Nov 28, 2020 - 02:53 PM EST / 2020.11.28 1953 UTC
Wind: from the NNE (030 degrees) at 9 MPH (8 KT):0
Visibility: 10 mile(s):0
Sky conditions: mostly clear
Temperature: 33.1 F (0.6 C)
Windchill: 24 F (-4 C):1
Dew Point: 21.0 F (-6.1 C)
Relative Humidity: 60%
Pressure (altimeter): 30.33 in. Hg (1027 hPa)
ob: KPIH 281953Z 03008KT 10SM FEW020 01/M06 A3033 RMK AO2 SLP305 T00061061
cycle: 20

Station Type Date Time Source
KPIH TAF 2020/11/28 18:22 UTC NOAA

TAF KPIH 281720Z 2818/2918 VRB06KT P6SM FEW008
FM290200 VRB06KT P6SM VCFG SCT004
TEMPO 2911/2915 1/2SM FZFG BKN004

Example: see airport list